createdAt,value
2022-07-29T00:09:25.481Z,101118.40
2022-07-29T00:14:24.709Z,101116.60
2022-07-29T00:19:23.605Z,101118.20
2022-07-29T00:24:23.042Z,101118.00
2022-07-29T00:29:37.886Z,101117.00
2022-07-29T00:34:54.799Z,101119.20
2022-07-29T00:39:53.695Z,101123.20
2022-07-29T00:44:52.924Z,101121.80
2022-07-29T00:49:52.550Z,101118.00
2022-07-29T00:54:51.961Z,101120.00
2022-07-29T00:59:51.946Z,101120.60
2022-07-29T01:04:51.580Z,101114.00
2022-07-29T01:09:51.101Z,101117.80
2022-07-29T01:14:52.625Z,101117.80
2022-07-29T01:20:04.572Z,101113.20
2022-07-29T01:25:22.328Z,101112.40
2022-07-29T01:30:25.190Z,101112.00
2022-07-29T01:35:33.893Z,101109.20
2022-07-29T01:40:40.555Z,101115.40
2022-07-29T01:45:50.204Z,101114.00
2022-07-29T01:50:56.096Z,101115.60
2022-07-29T01:55:57.737Z,101112.80
2022-07-29T02:01:00.640Z,101117.80
2022-07-29T02:06:04.572Z,101117.40
2022-07-29T02:11:06.058Z,101123.60
2022-07-29T02:16:08.596Z,101126.60
2022-07-29T02:21:14.800Z,101122.60
2022-07-29T02:26:15.369Z,101121.00
2022-07-29T02:31:17.424Z,101119.00
2022-07-29T02:36:18.440Z,101115.80
2022-07-29T02:41:22.492Z,101113.20
2022-07-29T02:46:31.584Z,101115.60
2022-07-29T02:51:44.746Z,101111.00
2022-07-29T02:56:47.810Z,101115.00
2022-07-29T03:01:50.342Z,101111.00
2022-07-29T03:06:51.057Z,101110.80
2022-07-29T03:11:52.348Z,101116.00
2022-07-29T03:16:53.578Z,101116.80
2022-07-29T03:21:54.366Z,101119.40
2022-07-29T03:26:54.324Z,101123.20
2022-07-29T03:31:52.956Z,101128.80
2022-07-29T03:36:53.427Z,101124.80
2022-07-29T03:41:57.723Z,101133.00
2022-07-29T03:47:03.534Z,101125.00
2022-07-29T03:52:04.101Z,101118.20
2022-07-29T03:57:05.685Z,101115.00
2022-07-29T04:02:06.891Z,101112.60
2022-07-29T04:07:06.215Z,101124.00
2022-07-29T04:12:09.244Z,101132.40
2022-07-29T04:17:09.012Z,101130.00
2022-07-29T04:22:28.749Z,101135.80
2022-07-29T04:27:28.025Z,101138.40
2022-07-29T04:32:27.654Z,101138.80
2022-07-29T04:37:26.825Z,101140.80
2022-07-29T04:42:27.771Z,101144.80
2022-07-29T04:47:28.454Z,101140.60
2022-07-29T04:52:28.103Z,101138.40
2022-07-29T04:57:29.328Z,101142.00
2022-07-29T05:02:27.934Z,101140.20
2022-07-29T05:07:26.921Z,101146.00
2022-07-29T05:12:25.952Z,101152.40
2022-07-29T05:17:25.205Z,101150.40
2022-07-29T05:22:28.081Z,101154.00
2022-07-29T05:27:27.266Z,101154.80
2022-07-29T05:32:28.818Z,101157.40
2022-07-29T05:37:28.488Z,101161.60
2022-07-29T05:42:30.340Z,101163.80
2022-07-29T05:47:30.184Z,101171.20
2022-07-29T05:52:29.683Z,101163.40
2022-07-29T05:57:29.630Z,101158.60
2022-07-29T06:02:30.153Z,101154.80
2022-07-29T06:07:31.756Z,101154.20
2022-07-29T06:12:33.489Z,101153.80
2022-07-29T06:17:32.022Z,101147.00
2022-07-29T06:22:31.718Z,101141.20
2022-07-29T06:27:32.478Z,101149.60
2022-07-29T06:32:32.345Z,101147.20
2022-07-29T06:37:31.687Z,101144.00
2022-07-29T06:42:32.678Z,101144.60
2022-07-29T06:47:31.995Z,101145.00
2022-07-29T06:52:33.494Z,101148.00
2022-07-29T06:57:32.675Z,101141.60
2022-07-29T07:02:34.147Z,101148.20
2022-07-29T07:07:35.167Z,101142.60
2022-07-29T07:12:35.977Z,101146.20
2022-07-29T07:17:35.207Z,101147.20
2022-07-29T07:22:38.615Z,101144.80
2022-07-29T07:27:38.417Z,101139.80
2022-07-29T07:32:37.451Z,101146.40
2022-07-29T07:37:41.881Z,101136.40
2022-07-29T07:42:48.850Z,101144.60
2022-07-29T07:47:49.318Z,101144.00
2022-07-29T07:52:58.993Z,101141.40
2022-07-29T07:57:59.238Z,101144.80
2022-07-29T08:02:58.784Z,101145.60
2022-07-29T08:07:58.790Z,101149.60
2022-07-29T08:12:58.072Z,101150.60
2022-07-29T08:17:57.521Z,101150.00
2022-07-29T08:23:00.325Z,101147.40
2022-07-29T08:27:59.571Z,101148.60
2022-07-29T08:32:59.897Z,101146.20
2022-07-29T08:38:00.049Z,101137.60
2022-07-29T08:43:00.894Z,101137.80
2022-07-29T08:48:01.045Z,101140.20
2022-07-29T08:53:00.751Z,101141.00
2022-07-29T08:58:01.220Z,101142.60
2022-07-29T09:03:03.960Z,101148.80
2022-07-29T09:08:03.856Z,101149.40
2022-07-29T09:13:05.188Z,101139.80
2022-07-29T09:18:04.600Z,101138.80
2022-07-29T09:23:13.077Z,101130.40
2022-07-29T09:28:24.945Z,101125.40
2022-07-29T09:33:35.686Z,101125.60
2022-07-29T09:38:36.370Z,101131.00
2022-07-29T09:43:37.186Z,101133.00
2022-07-29T09:48:35.640Z,101117.40
2022-07-29T09:53:43.151Z,101116.00
2022-07-29T09:58:42.310Z,101117.40
2022-07-29T10:03:56.645Z,101111.60
2022-07-29T10:08:55.863Z,101110.20
2022-07-29T10:13:56.030Z,101101.00
2022-07-29T10:18:55.855Z,101095.00
2022-07-29T10:23:56.365Z,101094.60
2022-07-29T10:29:01.669Z,101093.80
2022-07-29T10:34:17.931Z,101093.80
2022-07-29T10:39:41.779Z,101091.00
2022-07-29T10:44:47.606Z,101092.60
2022-07-29T10:50:04.224Z,101085.20
2022-07-29T10:55:06.006Z,101088.60
2022-07-29T11:00:36.303Z,101087.40
2022-07-29T11:05:56.494Z,101092.20
2022-07-29T11:11:51.615Z,101079.60
2022-07-29T11:17:06.995Z,101084.00
2022-07-29T11:22:10.129Z,101079.80
2022-07-29T11:27:18.376Z,101074.60
2022-07-29T11:37:42.527Z,101065.20
2022-07-29T11:42:56.699Z,101061.00
2022-07-29T11:48:27.665Z,101061.20
2022-07-29T11:53:21.779Z,101061.60
2022-07-29T11:58:27.393Z,101060.80
2022-07-29T12:03:32.913Z,101057.80
2022-07-29T12:07:03.248Z,101075.40
2022-07-29T12:08:44.927Z,101053.60
2022-07-29T12:13:45.616Z,101051.40
2022-07-29T12:18:56.830Z,101048.20
2022-07-29T12:24:08.957Z,101050.80
2022-07-29T12:29:14.075Z,101048.20
2022-07-29T14:24:57.285Z,101001.40
2022-07-29T14:29:56.796Z,100995.40
2022-07-29T14:34:56.159Z,100992.40
2022-07-29T14:39:55.682Z,100988.80
2022-07-29T14:44:55.327Z,100976.60
2022-07-29T14:49:54.676Z,100971.00
2022-07-29T14:56:37.143Z,100968.00
2022-07-29T15:30:34.109Z,100953.80
2022-07-29T15:35:40.039Z,100939.60
2022-07-29T15:41:25.935Z,100942.00
2022-07-29T15:46:42.623Z,100936.20
2022-07-29T15:51:42.701Z,100930.80
2022-07-29T15:56:42.418Z,100926.60
2022-07-29T16:01:42.681Z,100923.20
2022-07-29T16:06:44.913Z,100918.60
2022-07-29T16:11:44.186Z,100912.80
2022-07-29T16:16:45.114Z,100912.40
2022-07-29T16:21:45.267Z,100917.00
2022-07-29T16:26:44.806Z,100920.00
2022-07-29T16:31:44.922Z,100912.40
2022-07-29T16:36:47.728Z,100912.80
2022-07-29T16:41:47.749Z,100900.20
2022-07-29T16:46:49.421Z,100903.60
2022-07-29T16:51:49.502Z,100901.80
2022-07-29T16:56:49.518Z,100905.80
2022-07-29T17:01:53.626Z,100910.60
2022-07-29T17:06:53.247Z,100919.20
2022-07-29T17:11:55.249Z,100928.40
2022-07-29T17:17:01.019Z,100925.00
2022-07-29T17:22:09.390Z,100919.80
2022-07-29T17:27:10.284Z,100921.60
2022-07-29T17:32:11.860Z,100921.20
2022-07-29T17:37:13.814Z,100923.00
2022-07-29T17:42:15.663Z,100919.60
2022-07-29T17:47:16.756Z,100919.00
2022-07-29T17:52:18.698Z,100922.40
2022-07-29T17:57:19.035Z,100923.20
2022-07-29T18:02:18.968Z,100919.80
2022-07-29T18:07:18.802Z,100916.40
2022-07-29T18:12:22.731Z,100916.60
2022-07-29T18:17:22.451Z,100915.20
2022-07-29T18:22:45.279Z,100910.00
2022-07-29T18:27:45.399Z,100905.00
2022-07-29T18:33:04.953Z,100916.20
2022-07-29T18:38:06.248Z,100920.60
2022-07-29T18:43:06.284Z,100926.00
2022-07-29T18:48:06.519Z,100921.40
2022-07-29T18:53:08.060Z,100920.40
2022-07-29T18:58:07.302Z,100922.80
2022-07-29T19:03:07.026Z,100920.20
2022-07-29T19:08:07.650Z,100921.60
2022-07-29T19:13:06.892Z,100920.80
2022-07-29T19:18:07.312Z,100920.60
2022-07-29T19:23:07.088Z,100923.20
2022-07-29T19:28:06.452Z,100927.00
2022-07-29T19:33:05.793Z,100931.20
2022-07-29T19:38:06.792Z,100928.20
2022-07-29T19:43:51.059Z,100931.20
2022-07-29T19:48:31.563Z,100928.60
2022-07-29T19:53:31.198Z,100926.80
2022-07-29T19:58:30.515Z,100917.00
2022-07-29T20:03:32.635Z,100919.40
2022-07-29T20:08:31.800Z,100924.00
2022-07-29T20:13:33.316Z,100920.80
2022-07-29T20:18:32.323Z,100925.60
2022-07-29T20:23:33.459Z,100932.00
2022-07-29T20:28:33.098Z,100937.40
2022-07-29T20:33:32.420Z,100932.40
2022-07-29T20:38:31.557Z,100930.40
2022-07-29T20:43:35.919Z,100918.20
2022-07-29T20:48:42.903Z,100917.20
2022-07-29T20:53:44.376Z,100913.80
2022-07-29T20:58:45.257Z,100916.20
2022-07-29T21:03:45.316Z,100915.80
2022-07-29T21:08:45.054Z,100913.20
2022-07-29T21:13:45.605Z,100909.60
2022-07-29T21:18:46.509Z,100908.40
2022-07-29T21:23:47.617Z,100909.20
2022-07-29T21:28:47.506Z,100904.60
2022-07-29T21:33:51.274Z,100890.20
2022-07-29T21:38:51.097Z,100894.60
2022-07-29T21:43:49.844Z,100899.40
2022-07-29T21:48:49.374Z,100892.40
2022-07-29T21:53:48.814Z,100894.80
2022-07-29T21:58:48.402Z,100893.80
2022-07-29T22:03:46.979Z,100894.60
2022-07-29T22:08:49.236Z,100892.00
2022-07-29T22:13:49.834Z,100890.20
2022-07-29T22:18:49.710Z,100890.20
2022-07-29T22:23:49.231Z,100885.60
2022-07-29T22:28:49.149Z,100881.80
2022-07-29T22:33:52.992Z,100882.40
2022-07-29T22:38:52.279Z,100870.60
2022-07-29T22:43:51.909Z,100874.40
2022-07-29T22:48:51.463Z,100865.60
2022-07-29T22:53:50.637Z,100866.60
2022-07-29T22:58:50.191Z,100867.20
2022-07-29T23:03:50.951Z,100861.40
2022-07-29T23:08:52.499Z,100858.40
2022-07-29T23:13:51.792Z,100863.00
2022-07-29T23:18:52.933Z,100862.20
2022-07-29T23:23:52.122Z,100851.60
2022-07-29T23:28:50.976Z,100852.40
2022-07-29T23:33:52.559Z,100849.40
2022-07-29T23:39:09.993Z,100849.00
2022-07-29T23:44:18.862Z,100852.60
2022-07-29T23:49:18.723Z,100849.20
2022-07-29T23:54:18.167Z,100849.40
2022-07-29T23:59:17.580Z,100849.80
